.
WxDataArchive / Data Records for 2006-02-18
2006-02-17 February 2006 2006-02-19

Data Records for Saturday, 18 February 2006

Time	Temp	Chill	HIndex	Humid	Dewpt	 Wind 	HiWind	WindDir	Rain 	Barom 
-----	----	-----	------	-----	-----	------	------	-------	-----	----- 
00:00	23.3	23.3	23.3	60	11.5	3	6	270	0.00	30.437 
00:05	23.0	17.7	23.0	58	10.5	4	10	270	0.00	30.437 
00:10	22.9	17.6	22.9	55	9.2	4	7	270	0.00	30.437 
00:15	22.7	17.3	22.7	55	9.0	4	9	270	0.00	30.434 
00:20	22.5	22.5	22.5	56	9.2	3	8	270	0.00	30.434 
00:25	22.2	16.8	22.2	56	8.9	4	8	270	0.00	30.434 
00:30	22.2	16.8	22.2	55	8.5	4	9	270	0.00	30.429 
00:35	22.1	22.1	22.1	55	8.4	3	7	315	0.00	30.429 
00:40	21.9	21.9	21.9	55	8.2	3	7	292	0.00	30.429 
00:45	21.8	21.8	21.8	55	8.1	3	8	270	0.00	30.432 
00:50	21.6	21.6	21.6	56	8.4	3	6	270	0.00	30.432 
00:55	21.4	21.4	21.4	56	8.2	2	7	315	0.00	30.432 
01:00	21.3	21.3	21.3	57	8.5	3	7	338	0.00	30.435 
01:05	21.1	21.1	21.1	58	8.7	3	7	315	0.00	30.435 
01:10	21.1	21.1	21.1	58	8.7	3	9	292	0.00	30.435 
01:15	20.8	20.8	20.8	59	8.8	3	7	270	0.00	30.437 
01:20	20.6	20.6	20.6	62	9.7	3	10	315	0.00	30.437 
01:25	20.2	20.2	20.2	61	8.9	3	6	270	0.00	30.437 
01:30	19.9	19.9	19.9	58	7.5	2	5	292	0.00	30.440 
01:35	19.5	13.6	19.5	56	6.4	4	14	292	0.00	30.440 
01:40	19.2	19.2	19.2	56	6.1	3	8	315	0.00	30.440 
01:45	19.1	19.1	19.1	58	6.8	2	9	292	0.00	30.444 
01:50	19.1	19.1	19.1	57	6.4	3	7	270	0.00	30.444 
01:55	18.9	12.9	18.9	54	5.0	4	10	270	0.00	30.444 
02:00	18.8	18.8	18.8	57	6.1	2	5	270	0.00	30.440 
02:05	18.6	18.6	18.6	60	7.1	3	10	292	0.00	30.440 
02:10	18.4	18.4	18.4	61	7.2	3	7	270	0.00	30.440 
02:15	18.1	12.0	18.1	58	5.8	4	11	270	0.00	30.451 
02:20	18.0	18.0	18.0	58	5.7	3	10	292	0.00	30.451 
02:25	17.8	11.7	17.8	58	5.6	4	8	315	0.00	30.451 
02:30	17.7	11.6	17.7	58	5.5	4	10	292	0.00	30.452 
02:35	17.5	11.3	17.5	59	5.6	4	9	270	0.00	30.452 
02:40	17.3	17.3	17.3	61	6.2	3	10	292	0.00	30.452 
02:45	16.9	10.6	16.9	68	8.2	4	11	270	0.00	30.463 
02:50	16.5	16.5	16.5	69	8.1	3	7	292	0.00	30.463 
02:55	16.1	16.1	16.1	71	8.4	3	9	270	0.00	30.463 
03:00	15.2	15.2	15.2	71	7.5	3	7	315	0.00	30.468 
03:05	14.8	8.2	14.8	67	5.9	4	11	292	0.00	30.468 
03:10	14.3	7.6	14.3	68	5.7	4	10	315	0.00	30.468 
03:15	14.1	7.4	14.1	67	5.2	4	12	315	0.00	30.471 
03:20	14.0	7.3	14.0	64	4.1	4	9	270	0.00	30.471 
03:25	13.8	13.8	13.8	64	3.9	3	10	292	0.00	30.471 
03:30	13.6	6.8	13.6	66	4.4	4	9	292	0.00	30.477 
03:35	13.6	13.6	13.6	68	5.0	3	13	315	0.00	30.477 
03:40	13.5	6.7	13.5	71	5.9	4	9	315	0.00	30.477 
03:45	13.1	13.1	13.1	71	5.5	3	10	338	0.00	30.473 
03:50	12.4	12.4	12.4	71	4.8	2	7	315	0.00	30.473 
03:55	12.1	12.1	12.1	71	4.5	3	9	292	0.00	30.473 
04:00	11.9	11.9	11.9	69	3.7	3	14	315	0.00	30.482 
04:05	11.6	11.6	11.6	67	2.8	2	9	270	0.00	30.482 
04:10	11.7	11.7	11.7	68	3.2	2	9	292	0.00	30.482 
04:15	11.6	11.6	11.6	66	2.5	3	9	315	0.00	30.483 
04:20	11.6	11.6	11.6	67	2.8	3	10	270	0.00	30.483 
04:25	11.4	11.4	11.4	69	3.2	3	7	292	0.00	30.483 
04:30	11.1	11.1	11.1	70	3.3	3	6	315	0.00	30.495 
04:35	10.9	10.9	10.9	68	2.4	2	6	315	0.00	30.495 
04:40	10.4	10.4	10.4	60	-0.7	3	9	270	0.00	30.495 
04:45	10.2	10.2	10.2	58	-1.6	3	10	292	0.00	30.502 
04:50	10.0	10.0	10.0	57	-2.2	3	9	292	0.00	30.502 
04:55	9.7	9.7	9.7	54	-3.6	3	12	292	0.00	30.502 
05:00	9.5	9.5	9.5	54	-3.8	3	13	270	0.00	30.505 
05:05	9.3	9.3	9.3	54	-3.9	3	10	292	0.00	30.505 
05:10	9.3	9.3	9.3	54	-3.9	2	6	292	0.00	30.505 
05:15	9.2	9.2	9.2	55	-3.7	3	9	292	0.00	30.509 
05:20	9.2	9.2	9.2	56	-3.3	2	12	315	0.00	30.509 
05:25	9.2	9.2	9.2	56	-3.3	2	6	315	0.00	30.509 
05:30	9.2	9.2	9.2	56	-3.3	2	5	315	0.00	30.516 
05:35	9.0	9.0	9.0	56	-3.5	3	11	270	0.00	30.516 
05:40	8.8	8.8	8.8	57	-3.3	3	10	315	0.00	30.516 
05:45	8.4	8.4	8.4	58	-3.3	2	10	315	0.00	30.525 
05:50	8.4	8.4	8.4	58	-3.3	2	7	292	0.00	30.525 
05:55	8.4	8.4	8.4	59	-2.9	2	6	315	0.00	30.525 
06:00	8.3	8.3	8.3	64	-1.3	3	9	338	0.00	30.531 
06:05	7.9	7.9	7.9	62	-2.4	2	7	315	0.00	30.531 
06:10	7.9	7.9	7.9	61	-2.7	1	4	292	0.00	30.531 
06:15	7.7	7.7	7.7	62	-2.6	2	7	292	0.00	30.533 
06:20	7.4	7.4	7.4	60	-3.5	2	5	315	0.00	30.533 
06:25	7.4	7.4	7.4	60	-3.5	2	6	270	0.00	30.533 
06:30	7.4	7.4	7.4	57	-4.6	2	8	292	0.00	30.541 
06:35	7.2	7.2	7.2	53	-6.3	3	10	292	0.00	30.541 
06:40	7.2	7.2	7.2	53	-6.3	2	9	0	0.00	30.541 
06:45	7.0	7.0	7.0	53	-6.5	2	6	315	0.00	30.540 
06:50	7.0	7.0	7.0	55	-5.7	2	7	338	0.00	30.540 
06:55	7.0	7.0	7.0	54	-6.1	2	9	292	0.00	30.540 
07:00	7.2	7.2	7.2	56	-5.2	2	5	0	0.00	30.552 
07:05	7.2	7.2	7.2	57	-4.8	2	5	315	0.00	30.552 
07:10	7.2	7.2	7.2	55	-5.5	2	6	315	0.00	30.552 
07:15	7.0	7.0	7.0	52	-6.9	2	7	292	0.00	30.552 
07:20	7.0	7.0	7.0	54	-6.1	3	9	315	0.00	30.552 
07:25	6.9	6.9	6.9	54	-6.2	2	5	315	0.00	30.552 
07:30	6.9	6.9	6.9	55	-5.8	1	5	338	0.00	30.553 
07:35	7.0	7.0	7.0	53	-6.5	2	7	270	0.00	30.553 
07:40	6.9	6.9	6.9	51	-7.4	2	11	315	0.00	30.553 
07:45	6.7	6.7	6.7	49	-8.4	3	11	315	0.00	30.553 
07:50	6.5	6.5	6.5	50	-8.1	3	10	292	0.00	30.553 
07:55	6.5	6.5	6.5	50	-8.1	3	10	292	0.00	30.553 
08:00	6.5	6.5	6.5	51	-7.7	2	7	292	0.00	30.563 
08:05	6.3	6.3	6.3	51	-7.9	2	4	315	0.00	30.563 
08:10	6.3	6.3	6.3	49	-8.7	2	5	338	0.00	30.563 
08:15	6.3	6.3	6.3	51	-7.9	1	6	338	0.00	30.568 
08:20	6.5	6.5	6.5	51	-7.7	2	9	0	0.00	30.568 
08:25	6.7	6.7	6.7	52	-7.1	2	7	338	0.00	30.568 
08:30	6.9	6.9	6.9	51	-7.4	2	9	292	0.00	30.578 
08:35	7.0	7.0	7.0	52	-6.9	2	5	22	0.00	30.578 
08:40	7.0	7.0	7.0	53	-6.5	1	4	315	0.00	30.578 
08:45	7.0	7.0	7.0	53	-6.5	2	4	0	0.00	30.582 
08:50	7.4	7.4	7.4	53	-6.1	2	5	270	0.00	30.582 
08:55	7.6	7.6	7.6	52	-6.3	2	7	292	0.00	30.582 
09:00	7.6	7.6	7.6	53	-5.9	2	7	315	0.00	30.576 
09:05	7.6	7.6	7.6	52	-6.3	2	7	0	0.00	30.576 
09:10	8.3	8.3	8.3	54	-4.9	1	5	315	0.00	30.576 
09:15	8.6	8.6	8.6	53	-5.0	2	5	338	0.00	30.581 
09:20	8.8	8.8	8.8	54	-4.4	1	5	338	0.00	30.581 
09:25	8.3	8.3	8.3	54	-4.9	3	7	292	0.00	30.581 
09:30	7.7	7.7	7.7	52	-6.2	2	6	292	0.00	30.583 
09:35	7.6	7.6	7.6	51	-6.7	2	5	338	0.00	30.583 
09:40	7.6	7.6	7.6	51	-6.7	2	9	315	0.00	30.583 
09:45	7.6	7.6	7.6	51	-6.7	2	6	292	0.00	30.588 
09:50	7.6	7.6	7.6	51	-6.7	1	5	315	0.00	30.588 
09:55	8.3	8.3	8.3	51	-6.1	2	6	0	0.00	30.588 
10:00	8.8	8.8	8.8	48	-6.8	3	7	338	0.00	30.587 
10:05	8.1	8.1	8.1	48	-7.5	2	5	315	0.00	30.587 
10:10	8.1	8.1	8.1	52	-5.8	2	5	292	0.00	30.587 
10:15	7.7	7.7	7.7	59	-3.6	2	5	338	0.00	30.594 
10:20	7.7	7.7	7.7	58	-4.0	1	4	292	0.00	30.594 
10:25	8.4	8.4	8.4	55	-4.4	2	5	292	0.00	30.594 
10:30	8.4	8.4	8.4	56	-4.0	2	4	0	0.00	30.595 
10:35	8.1	8.1	8.1	58	-3.6	2	5	338	0.00	30.595 
10:40	8.3	8.3	8.3	54	-4.9	2	5	292	0.00	30.595 
10:45	7.9	7.9	7.9	60	-3.1	2	6	315	0.00	30.598 
10:50	8.3	8.3	8.3	65	-1.0	1	4	315	0.00	30.598 
10:55	8.6	8.6	8.6	69	0.5	1	4	315	0.00	30.598 
11:00	7.9	7.9	7.9	71	0.5	2	4	22	0.00	30.598 
11:05	7.7	7.7	7.7	73	0.9	1	3	338	0.00	30.598 
11:10	7.9	7.9	7.9	68	-0.4	1	3	338	0.00	30.598 
11:15	9.2	9.2	9.2	70	1.4	1	3	270	0.00	30.598 
11:20	9.2	9.2	9.2	62	-1.1	2	4	315	0.00	30.598 
11:25	9.5	9.5	9.5	57	-2.6	2	5	270	0.00	30.598 
11:30	9.7	9.7	9.7	58	-2.1	2	5	315	0.00	30.598 
11:35	9.7	9.7	9.7	55	-3.2	2	6	338	0.00	30.598 
11:40	9.5	9.5	9.5	57	-2.6	2	5	338	0.00	30.598 
11:45	9.7	9.7	9.7	59	-1.7	2	5	315	0.00	30.600 
11:50	10.2	10.2	10.2	57	-2.0	1	4	292	0.00	30.600 
11:55	9.7	9.7	9.7	59	-1.7	2	9	315	0.00	30.600 
12:00	9.9	9.9	9.9	57	-2.2	2	7	338	0.00	30.605 
12:05	11.1	11.1	11.1	55	-1.9	2	6	0	0.00	30.605 
12:10	10.7	10.7	10.7	52	-3.4	2	7	270	0.00	30.605 
12:15	10.5	10.5	10.5	58	-1.3	2	5	270	0.00	30.612 
12:20	10.5	10.5	10.5	62	0.1	1	4	315	0.00	30.612 
12:25	10.0	10.0	10.0	62	-0.4	2	5	292	0.00	30.612 
12:30	10.2	10.2	10.2	59	-1.2	1	4	315	0.00	30.605 
12:35	10.2	10.2	10.2	58	-1.6	2	6	270	0.00	30.605 
12:40	10.4	10.4	10.4	52	-3.7	1	4	0	0.00	30.605 
12:45	11.6	11.6	11.6	49	-3.8	2	5	248	0.00	30.593 
12:50	11.6	11.6	11.6	49	-3.8	2	5	0	0.00	30.593 
12:55	11.4	11.4	11.4	54	-2.0	2	6	315	0.00	30.593 
13:00	11.1	11.1	11.1	56	-1.5	2	6	315	0.00	30.585 
13:05	10.2	10.2	10.2	53	-3.5	2	6	338	0.00	30.585 
13:10	10.9	10.9	10.9	50	-4.0	2	5	0	0.00	30.585 
13:15	11.9	11.9	11.9	47	-4.4	2	6	270	0.00	30.582 
13:20	12.3	12.3	12.3	47	-4.0	2	5	270	0.00	30.582 
13:25	12.4	12.4	12.4	50	-2.7	1	3	292	0.00	30.582 
13:30	11.4	11.4	11.4	50	-3.6	2	6	315	0.00	30.575 
13:35	11.1	11.1	11.1	48	-4.7	2	6	338	0.00	30.575 
13:40	10.9	10.9	10.9	46	-5.8	1	3	0	0.00	30.575 
13:45	10.7	10.7	10.7	54	-2.6	2	5	292	0.00	30.570 
13:50	10.7	10.7	10.7	55	-2.2	1	4	315	0.00	30.570 
13:55	10.9	10.9	10.9	51	-3.6	1	5	270	0.00	30.570 
14:00	11.2	11.2	11.2	49	-4.2	2	4	270	0.00	30.567 
14:05	11.6	11.6	11.6	48	-4.2	2	5	270	0.00	30.567 
14:10	11.6	11.6	11.6	51	-3.0	3	7	292	0.00	30.567 
14:15	11.2	11.2	11.2	50	-3.8	2	5	0	0.00	30.570 
14:20	11.6	11.6	11.6	45	-5.6	2	5	270	0.00	30.570 
14:25	11.7	11.7	11.7	48	-4.2	1	4	270	0.00	30.570 
14:30	12.1	12.1	12.1	49	-3.4	1	4	270	0.00	30.560 
14:35	11.9	11.9	11.9	58	0.0	1	3	0	0.00	30.560 
14:40	11.1	11.1	11.1	61	0.3	1	5	22	0.00	30.560 
14:45	11.4	11.4	11.4	63	1.3	2	5	292	0.00	30.570 
14:50	11.4	11.4	11.4	54	-2.0	2	6	292	0.00	30.570 
14:55	11.9	11.9	11.9	54	-1.5	1	7	270	0.00	30.570 
15:00	12.9	12.9	12.9	50	-2.2	2	4	292	0.00	30.568 
15:05	12.8	12.8	12.8	50	-2.3	2	6	315	0.00	30.568 
15:10	12.6	12.6	12.6	49	-2.9	2	5	248	0.00	30.568 
15:15	12.1	12.1	12.1	51	-2.5	1	3	248	0.00	30.573 
15:20	11.7	11.7	11.7	51	-2.9	2	4	292	0.00	30.573 
15:25	11.4	11.4	11.4	55	-1.6	2	4	338	0.00	30.573 
15:30	11.4	11.4	11.4	55	-1.6	1	4	338	0.00	30.575 
15:35	11.4	11.4	11.4	55	-1.6	2	7	315	0.00	30.575 
15:40	11.1	11.1	11.1	56	-1.5	2	7	338	0.00	30.575 
15:45	10.9	10.9	10.9	58	-0.9	2	4	315	0.00	30.574 
15:50	10.7	10.7	10.7	58	-1.1	2	5	315	0.00	30.574 
15:55	11.1	11.1	11.1	57	-1.1	2	6	315	0.00	30.574 
16:00	11.1	11.1	11.1	54	-2.3	2	6	270	0.00	30.576 
16:05	11.2	11.2	11.2	50	-3.8	1	5	338	0.00	30.576 
16:10	11.1	11.1	11.1	54	-2.3	2	7	292	0.00	30.576 
16:15	10.9	10.9	10.9	56	-1.7	1	4	270	0.00	30.580 
16:20	11.1	11.1	11.1	54	-2.3	1	5	338	0.00	30.580 
16:25	11.6	11.6	11.6	54	-1.8	1	5	292	0.00	30.580 
16:30	11.4	11.4	11.4	58	-0.5	2	6	270	0.00	30.578 
16:35	11.1	11.1	11.1	55	-1.9	2	5	315	0.00	30.578 
16:40	10.9	10.9	10.9	57	-1.3	1	3	292	0.00	30.578 
16:45	10.5	10.5	10.5	58	-1.3	1	4	315	0.00	30.578 
16:50	10.4	10.4	10.4	58	-1.4	1	4	315	0.00	30.578 
16:55	10.2	10.2	10.2	64	0.5	2	6	338	0.00	30.578 
17:00	10.0	10.0	10.0	67	1.3	1	5	292	0.00	30.578 
17:05	9.5	9.5	9.5	64	-0.2	2	5	315	0.00	30.578 
17:10	9.7	9.7	9.7	65	0.3	1	4	270	0.00	30.578 
17:15	10.0	10.0	10.0	60	-1.1	2	4	315	0.00	30.576 
17:20	10.2	10.2	10.2	58	-1.6	2	4	315	0.00	30.576 
17:25	9.9	9.9	9.9	59	-1.5	2	5	338	0.00	30.576 
17:30	9.9	9.9	9.9	61	-0.8	1	3	292	0.00	30.580 
17:35	10.0	10.0	10.0	60	-1.1	2	5	270	0.00	30.580 
17:40	10.2	10.2	10.2	58	-1.6	2	4	292	0.00	30.580 
17:45	10.2	10.2	10.2	54	-3.1	2	6	270	0.00	30.578 
17:50	10.2	10.2	10.2	54	-3.1	2	7	270	0.00	30.578 
17:55	10.4	10.4	10.4	56	-2.2	1	4	270	0.00	30.578 
18:00	10.2	10.2	10.2	55	-2.7	2	6	270	0.00	30.579 
18:05	10.0	10.0	10.0	57	-2.2	1	5	292	0.00	30.579 
18:10	9.9	9.9	9.9	58	-1.9	1	6	270	0.00	30.579 
18:15	9.9	9.9	9.9	56	-2.6	1	4	270	0.00	30.583 
18:20	9.9	9.9	9.9	56	-2.6	1	3	270	0.00	30.583 
18:25	9.7	9.7	9.7	59	-1.7	2	4	270	0.00	30.583 
18:30	9.5	9.5	9.5	65	0.1	1	4	270	0.00	30.588 
18:35	9.2	9.2	9.2	60	-1.8	2	6	270	0.00	30.588 
18:40	9.2	9.2	9.2	59	-2.2	2	5	270	0.00	30.588 
18:45	9.2	9.2	9.2	54	-4.0	2	5	270	0.00	30.588 
18:50	8.8	8.8	8.8	57	-3.3	1	5	292	0.00	30.588 
18:55	8.6	8.6	8.6	59	-2.8	1	5	270	0.00	30.588 
19:00	8.4	8.4	8.4	61	-2.2	1	4	270	0.00	30.593 
19:05	8.3	8.3	8.3	63	-1.7	1	2	270	0.00	30.593 
19:10	8.1	8.1	8.1	63	-1.9	1	3	270	0.00	30.593 
19:15	7.9	7.9	7.9	63	-2.0	1	3	315	0.00	30.591 
19:20	7.9	7.9	7.9	64	-1.7	1	3	270	0.00	30.591 
19:25	7.7	7.7	7.7	64	-1.9	1	4	315	0.00	30.591 
19:30	7.7	7.7	7.7	64	-1.9	1	2	338	0.00	30.594 
19:35	7.7	7.7	7.7	62	-2.6	1	5	315	0.00	30.594 
19:40	7.7	7.7	7.7	62	-2.6	1	3	270	0.00	30.594 
19:45	7.6	7.6	7.6	62	-2.7	1	4	338	0.00	30.596 
19:50	7.6	7.6	7.6	62	-2.7	1	3	292	0.00	30.596 
19:55	7.4	7.4	7.4	62	-2.9	1	3	338	0.00	30.596 
20:00	7.4	7.4	7.4	62	-2.9	1	3	292	0.00	30.596 
20:05	7.4	7.4	7.4	61	-3.2	1	3	338	0.00	30.596 
20:10	7.2	7.2	7.2	62	-3.0	1	3	270	0.00	30.596 
20:15	7.2	7.2	7.2	61	-3.4	1	4	292	0.00	30.595 
20:20	7.2	7.2	7.2	62	-3.0	1	4	248	0.00	30.595 
20:25	7.0	7.0	7.0	63	-2.9	1	4	292	0.00	30.595 
20:30	7.0	7.0	7.0	63	-2.9	1	6	270	0.00	30.596 
20:35	7.0	7.0	7.0	63	-2.9	1	2	270	0.00	30.596 
20:40	7.0	7.0	7.0	63	-2.9	1	4	315	0.00	30.596 
20:45	7.0	7.0	7.0	63	-2.9	1	4	292	0.00	30.599 
20:50	6.9	6.9	6.9	64	-2.7	1	3	270	0.00	30.599 
20:55	6.9	6.9	6.9	63	-3.0	1	3	248	0.00	30.599 
21:00	6.9	6.9	6.9	63	-3.0	1	3	248	0.00	30.598 
21:05	6.7	6.7	6.7	64	-2.9	1	3	315	0.00	30.598 
21:10	6.7	6.7	6.7	64	-2.9	0	3	270	0.00	30.598 
21:15	6.7	6.7	6.7	64	-2.9	1	2	270	0.00	30.596 
21:20	6.5	6.5	6.5	64	-3.0	0	2	270	0.00	30.596 
21:25	6.5	6.5	6.5	65	-2.7	1	3	248	0.00	30.596 
21:30	6.5	6.5	6.5	65	-2.7	1	3	270	0.00	30.597 
21:35	6.3	6.3	6.3	66	-2.6	1	3	270	0.00	30.597 
21:40	6.3	6.3	6.3	67	-2.3	0	1	270	0.00	30.597 
21:45	6.3	6.3	6.3	68	-2.0	0	1	248	0.00	30.598 
21:50	6.3	6.3	6.3	68	-2.0	1	3	248	0.00	30.598 
21:55	6.1	6.1	6.1	68	-2.2	1	2	292	0.00	30.598 
22:00	6.1	6.1	6.1	68	-2.2	1	2	270	0.00	30.600 
22:05	6.1	6.1	6.1	68	-2.2	1	3	292	0.00	30.600 
22:10	6.0	6.0	6.0	68	-2.3	0	3	248	0.00	30.600 
22:15	6.0	6.0	6.0	69	-1.9	0	2	248	0.00	30.601 
22:20	5.8	5.8	5.8	68	-2.4	0	2	248	0.00	30.601 
22:25	5.8	5.8	5.8	68	-2.4	1	2	248	0.00	30.601 
22:30	5.8	5.8	5.8	68	-2.4	0	2	270	0.00	30.602 
22:35	5.6	5.6	5.6	68	-2.6	1	2	248	0.00	30.602 
22:40	5.6	5.6	5.6	68	-2.6	0	2	292	0.00	30.602 
22:45	5.6	5.6	5.6	68	-2.6	0	1	315	0.00	30.601 
22:50	5.6	5.6	5.6	69	-2.3	0	1	292	0.00	30.601 
22:55	5.4	5.4	5.4	69	-2.5	0	2	292	0.00	30.601 
23:00	5.4	5.4	5.4	69	-2.5	0	2	292	0.00	30.599 
23:05	5.2	5.2	5.2	69	-2.7	0	1	292	0.00	30.599 
23:10	5.2	5.2	5.2	69	-2.7	1	2	270	0.00	30.599 
23:15	5.2	5.2	5.2	69	-2.7	0	1	270	0.00	30.592 
23:20	5.0	5.0	5.0	69	-2.9	0	2	248	0.00	30.592 
23:25	5.0	5.0	5.0	69	-2.9	0	2	248	0.00	30.592 
23:30	5.0	5.0	5.0	69	-2.9	0	1	248	0.00	30.591 
23:35	4.8	4.8	4.8	70	-2.8	0	2	248	0.00	30.591 
23:40	4.8	4.8	4.8	70	-2.8	0	1	248	0.00	30.591 
23:45	4.7	4.7	4.7	70	-2.9	0	2	248	0.00	30.588 
23:50	4.7	4.7	4.7	70	-2.9	0	1	248	0.00	30.588 
23:55	4.7	4.7	4.7	70	-2.9	0	2	248	0.00	30.588 

CoCoRaHS
IN-AL-39
A2 Web Hosting
Creative Commons License
GoDaddy
Look for:

loaded 2017-12-10 21:21:26 • last modified 2010-11-18 10:43:29
Privacy PolicyDisclaimer
• wx.awcolley.com is powered by PmWiki v.2002016 •
• all content (unless otherwise noted) © 2017 A W Colley